sensor_id;sensor_type;location;lat;lon;timestamp;temperature;humidity
67641;SHT31;54434;50.096;20.082;2023-03-02T00:03:02;-2.82;78.57
67641;SHT31;54434;50.096;20.082;2023-03-02T00:05:39;-2.81;78.74
67641;SHT31;54434;50.096;20.082;2023-03-02T00:08:18;-2.80;78.81
67641;SHT31;54434;50.096;20.082;2023-03-02T00:10:55;-2.78;78.89
67641;SHT31;54434;50.096;20.082;2023-03-02T00:13:33;-2.77;78.90
67641;SHT31;54434;50.096;20.082;2023-03-02T00:16:12;-2.75;78.96
67641;SHT31;54434;50.096;20.082;2023-03-02T00:18:48;-2.75;78.99
67641;SHT31;54434;50.096;20.082;2023-03-02T00:21:24;-2.74;79.04
67641;SHT31;54434;50.096;20.082;2023-03-02T00:24:02;-2.74;79.00
67641;SHT31;54434;50.096;20.082;2023-03-02T00:26:40;-2.74;79.08
67641;SHT31;54434;50.096;20.082;2023-03-02T00:29:16;-2.74;79.11
67641;SHT31;54434;50.096;20.082;2023-03-02T00:31:53;-2.73;79.20
67641;SHT31;54434;50.096;20.082;2023-03-02T00:34:29;-2.73;79.28
67641;SHT31;54434;50.096;20.082;2023-03-02T00:37:05;-2.74;79.31
67641;SHT31;54434;50.096;20.082;2023-03-02T00:39:42;-2.74;79.30
67641;SHT31;54434;50.096;20.082;2023-03-02T00:42:19;-2.75;79.30
67641;SHT31;54434;50.096;20.082;2023-03-02T00:44:55;-2.77;79.26
67641;SHT31;54434;50.096;20.082;2023-03-02T00:47:35;-2.80;79.20
67641;SHT31;54434;50.096;20.082;2023-03-02T00:50:13;-2.81;79.25
67641;SHT31;54434;50.096;20.082;2023-03-02T00:52:50;-2.83;79.28
67641;SHT31;54434;50.096;20.082;2023-03-02T00:55:26;-2.84;79.29
67641;SHT31;54434;50.096;20.082;2023-03-02T00:58:03;-2.86;79.29
67641;SHT31;54434;50.096;20.082;2023-03-02T01:00:40;-2.87;79.29
67641;SHT31;54434;50.096;20.082;2023-03-02T01:03:17;-2.89;79.30
67641;SHT31;54434;50.096;20.082;2023-03-02T01:05:54;-2.92;79.30
67641;SHT31;54434;50.096;20.082;2023-03-02T01:08:31;-2.92;79.35
67641;SHT31;54434;50.096;20.082;2023-03-02T01:11:15;-2.94;79.36
67641;SHT31;54434;50.096;20.082;2023-03-02T01:13:55;-2.97;79.28
67641;SHT31;54434;50.096;20.082;2023-03-02T01:16:33;-2.97;79.30
67641;SHT31;54434;50.096;20.082;2023-03-02T01:19:10;-2.97;79.25
67641;SHT31;54434;50.096;20.082;2023-03-02T01:21:46;-2.97;79.28
67641;SHT31;54434;50.096;20.082;2023-03-02T01:24:23;-3.00;79.33
67641;SHT31;54434;50.096;20.082;2023-03-02T01:27:00;-3.04;79.40
67641;SHT31;54434;50.096;20.082;2023-03-02T01:29:37;-3.09;79.52
67641;SHT31;54434;50.096;20.082;2023-03-02T01:32:14;-3.12;79.63
67641;SHT31;54434;50.096;20.082;2023-03-02T01:34:51;-3.13;79.77
67641;SHT31;54434;50.096;20.082;2023-03-02T01:37:28;-3.12;79.85
67641;SHT31;54434;50.096;20.082;2023-03-02T01:40:05;-3.11;79.83
67641;SHT31;54434;50.096;20.082;2023-03-02T01:42:55;-3.12;79.74
67641;SHT31;54434;50.096;20.082;2023-03-02T01:45:53;-3.14;79.72
67641;SHT31;54434;50.096;20.082;2023-03-02T01:48:49;-3.16;79.78
67641;SHT31;54434;50.096;20.082;2023-03-02T01:51:44;-3.19;79.78
67641;SHT31;54434;50.096;20.082;2023-03-02T01:54:23;-3.20;79.85
67641;SHT31;54434;50.096;20.082;2023-03-02T01:57:02;-3.20;79.90
67641;SHT31;54434;50.096;20.082;2023-03-02T01:59:41;-3.20;79.82
67641;SHT31;54434;50.096;20.082;2023-03-02T02:02:19;-3.21;79.74
67641;SHT31;54434;50.096;20.082;2023-03-02T02:04:57;-3.26;79.59
67641;SHT31;54434;50.096;20.082;2023-03-02T02:07:34;-3.27;79.58
67641;SHT31;54434;50.096;20.082;2023-03-02T02:10:12;-3.27;79.54
67641;SHT31;54434;50.096;20.082;2023-03-02T02:12:49;-3.27;79.60
67641;SHT31;54434;50.096;20.082;2023-03-02T02:15:25;-3.29;79.61
67641;SHT31;54434;50.096;20.082;2023-03-02T02:18:02;-3.32;79.58
67641;SHT31;54434;50.096;20.082;2023-03-02T02:20:40;-3.38;79.50
67641;SHT31;54434;50.096;20.082;2023-03-02T02:23:25;-3.41;79.56
67641;SHT31;54434;50.096;20.082;2023-03-02T02:26:20;-3.44;79.61
67641;SHT31;54434;50.096;20.082;2023-03-02T02:29:03;-3.45;79.61
67641;SHT31;54434;50.096;20.082;2023-03-02T02:31:49;-3.45;79.59
67641;SHT31;54434;50.096;20.082;2023-03-02T02:34:31;-3.46;79.56
67641;SHT31;54434;50.096;20.082;2023-03-02T02:37:16;-3.47;79.51
67641;SHT31;54434;50.096;20.082;2023-03-02T02:39:59;-3.52;79.53
67641;SHT31;54434;50.096;20.082;2023-03-02T02:42:45;-3.54;79.70
67641;SHT31;54434;50.096;20.082;2023-03-02T02:45:25;-3.60;79.81
67641;SHT31;54434;50.096;20.082;2023-03-02T02:48:02;-3.62;79.87
67641;SHT31;54434;50.096;20.082;2023-03-02T02:50:43;-3.63;79.70
67641;SHT31;54434;50.096;20.082;2023-03-02T02:53:26;-3.65;79.59
67641;SHT31;54434;50.096;20.082;2023-03-02T02:56:12;-3.68;79.60
67641;SHT31;54434;50.096;20.082;2023-03-02T02:58:51;-3.71;79.71
67641;SHT31;54434;50.096;20.082;2023-03-02T03:01:31;-3.71;79.72
67641;SHT31;54434;50.096;20.082;2023-03-02T03:04:11;-3.74;79.63
67641;SHT31;54434;50.096;20.082;2023-03-02T03:06:54;-3.76;79.57
67641;SHT31;54434;50.096;20.082;2023-03-02T03:09:33;-3.75;79.52
67641;SHT31;54434;50.096;20.082;2023-03-02T03:12:12;-3.79;79.46
67641;SHT31;54434;50.096;20.082;2023-03-02T03:14:52;-3.81;79.50
67641;SHT31;54434;50.096;20.082;2023-03-02T03:17:30;-3.82;79.61
67641;SHT31;54434;50.096;20.082;2023-03-02T03:20:09;-3.84;79.60
67641;SHT31;54434;50.096;20.082;2023-03-02T03:22:49;-3.84;79.67
67641;SHT31;54434;50.096;20.082;2023-03-02T03:25:26;-3.85;79.60
67641;SHT31;54434;50.096;20.082;2023-03-02T03:28:05;-3.86;79.60
67641;SHT31;54434;50.096;20.082;2023-03-02T03:30:42;-3.88;79.60
67641;SHT31;54434;50.096;20.082;2023-03-02T03:33:19;-3.88;79.67
67641;SHT31;54434;50.096;20.082;2023-03-02T03:35:55;-3.91;79.71
67641;SHT31;54434;50.096;20.082;2023-03-02T03:38:34;-3.94;79.56
67641;SHT31;54434;50.096;20.082;2023-03-02T03:41:11;-3.97;79.59
67641;SHT31;54434;50.096;20.082;2023-03-02T03:43:47;-3.94;79.72
67641;SHT31;54434;50.096;20.082;2023-03-02T03:46:25;-3.95;79.65
67641;SHT31;54434;50.096;20.082;2023-03-02T03:49:03;-3.98;79.50
67641;SHT31;54434;50.096;20.082;2023-03-02T03:51:40;-4.01;79.52
67641;SHT31;54434;50.096;20.082;2023-03-02T03:54:17;-4.01;79.60
67641;SHT31;54434;50.096;20.082;2023-03-02T03:56:54;-4.04;79.66
67641;SHT31;54434;50.096;20.082;2023-03-02T03:59:32;-4.04;79.78
67641;SHT31;54434;50.096;20.082;2023-03-02T04:02:08;-4.04;79.89
67641;SHT31;54434;50.096;20.082;2023-03-02T04:04:46;-4.04;79.92
67641;SHT31;54434;50.096;20.082;2023-03-02T04:07:23;-4.03;79.97
67641;SHT31;54434;50.096;20.082;2023-03-02T04:09:59;-4.03;79.90
67641;SHT31;54434;50.096;20.082;2023-03-02T04:12:39;-4.07;79.82
67641;SHT31;54434;50.096;20.082;2023-03-02T04:15:16;-4.07;79.83
67641;SHT31;54434;50.096;20.082;2023-03-02T04:17:54;-4.09;79.71
67641;SHT31;54434;50.096;20.082;2023-03-02T04:20:31;-4.09;79.75
67641;SHT31;54434;50.096;20.082;2023-03-02T04:23:08;-4.09;79.73
67641;SHT31;54434;50.096;20.082;2023-03-02T04:25:45;-4.09;79.75
67641;SHT31;54434;50.096;20.082;2023-03-02T04:28:24;-4.07;79.70
67641;SHT31;54434;50.096;20.082;2023-03-02T04:31:01;-4.08;79.60
67641;SHT31;54434;50.096;20.082;2023-03-02T04:33:38;-4.10;79.51
67641;SHT31;54434;50.096;20.082;2023-03-02T04:36:14;-4.10;79.50
67641;SHT31;54434;50.096;20.082;2023-03-02T04:38:51;-4.11;79.50
67641;SHT31;54434;50.096;20.082;2023-03-02T04:41:28;-4.12;79.55
67641;SHT31;54434;50.096;20.082;2023-03-02T04:44:05;-4.13;79.62
67641;SHT31;54434;50.096;20.082;2023-03-02T04:46:42;-4.14;79.72
67641;SHT31;54434;50.096;20.082;2023-03-02T04:49:19;-4.13;79.96
67641;SHT31;54434;50.096;20.082;2023-03-02T04:51:56;-4.11;80.21
67641;SHT31;54434;50.096;20.082;2023-03-02T04:54:33;-4.09;80.42
67641;SHT31;54434;50.096;20.082;2023-03-02T04:57:09;-4.07;80.56
67641;SHT31;54434;50.096;20.082;2023-03-02T04:59:46;-4.02;80.73
67641;SHT31;54434;50.096;20.082;2023-03-02T05:02:22;-3.98;80.80
67641;SHT31;54434;50.096;20.082;2023-03-02T05:04:59;-3.93;80.80
67641;SHT31;54434;50.096;20.082;2023-03-02T05:07:35;-3.89;80.70
67641;SHT31;54434;50.096;20.082;2023-03-02T05:10:12;-3.85;80.58
67641;SHT31;54434;50.096;20.082;2023-03-02T05:12:50;-3.85;80.36
67641;SHT31;54434;50.096;20.082;2023-03-02T05:15:30;-3.87;80.33
67641;SHT31;54434;50.096;20.082;2023-03-02T05:18:09;-3.89;80.30
67641;SHT31;54434;50.096;20.082;2023-03-02T05:20:46;-3.90;80.30
67641;SHT31;54434;50.096;20.082;2023-03-02T05:23:23;-3.90;80.18
67641;SHT31;54434;50.096;20.082;2023-03-02T05:26:02;-3.89;80.15
67641;SHT31;54434;50.096;20.082;2023-03-02T05:28:39;-3.89;80.09
67641;SHT31;54434;50.096;20.082;2023-03-02T05:31:18;-3.87;80.04
67641;SHT31;54434;50.096;20.082;2023-03-02T05:34:01;-3.89;79.98
67641;SHT31;54434;50.096;20.082;2023-03-02T05:36:41;-3.86;80.00
67641;SHT31;54434;50.096;20.082;2023-03-02T05:39:18;-3.83;79.99
67641;SHT31;54434;50.096;20.082;2023-03-02T05:41:55;-3.81;79.85
67641;SHT31;54434;50.096;20.082;2023-03-02T05:44:31;-3.79;79.81
67641;SHT31;54434;50.096;20.082;2023-03-02T05:47:07;-3.79;79.73
67641;SHT31;54434;50.096;20.082;2023-03-02T05:49:44;-3.78;79.80
67641;SHT31;54434;50.096;20.082;2023-03-02T05:52:21;-3.73;79.80
67641;SHT31;54434;50.096;20.082;2023-03-02T05:54:57;-3.69;79.75
67641;SHT31;54434;50.096;20.082;2023-03-02T05:57:34;-3.65;79.70
67641;SHT31;54434;50.096;20.082;2023-03-02T06:00:12;-3.61;79.70
67641;SHT31;54434;50.096;20.082;2023-03-02T06:02:51;-3.53;79.78
67641;SHT31;54434;50.096;20.082;2023-03-02T06:05:28;-3.48;79.81
67641;SHT31;54434;50.096;20.082;2023-03-02T06:08:05;-3.41;79.92
67641;SHT31;54434;50.096;20.082;2023-03-02T06:10:41;-3.26;80.02
67641;SHT31;54434;50.096;20.082;2023-03-02T06:13:18;-3.01;80.03
67641;SHT31;54434;50.096;20.082;2023-03-02T06:15:54;-2.64;79.75
67641;SHT31;54434;50.096;20.082;2023-03-02T06:18:30;-2.28;79.05
67641;SHT31;54434;50.096;20.082;2023-03-02T06:21:11;-2.00;78.53
67641;SHT31;54434;50.096;20.082;2023-03-02T06:23:49;-1.73;78.11
67641;SHT31;54434;50.096;20.082;2023-03-02T06:26:25;-1.50;77.59
67641;SHT31;54434;50.096;20.082;2023-03-02T06:29:02;-1.29;77.39
67641;SHT31;54434;50.096;20.082;2023-03-02T06:31:39;-1.13;77.30
67641;SHT31;54434;50.096;20.082;2023-03-02T06:34:15;-0.97;77.21
67641;SHT31;54434;50.096;20.082;2023-03-02T06:36:52;-0.79;76.98
67641;SHT31;54434;50.096;20.082;2023-03-02T06:39:28;-0.66;76.69
67641;SHT31;54434;50.096;20.082;2023-03-02T06:42:05;-0.50;76.48
67641;SHT31;54434;50.096;20.082;2023-03-02T06:44:42;-0.37;76.15
67641;SHT31;54434;50.096;20.082;2023-03-02T06:47:19;-0.23;75.86
67641;SHT31;54434;50.096;20.082;2023-03-02T06:49:56;-0.10;75.66
67641;SHT31;54434;50.096;20.082;2023-03-02T06:52:32;0.02;75.46
67641;SHT31;54434;50.096;20.082;2023-03-02T06:55:10;0.15;75.34
67641;SHT31;54434;50.096;20.082;2023-03-02T06:57:47;0.29;75.06
67641;SHT31;54434;50.096;20.082;2023-03-02T07:00:25;0.42;74.72
67641;SHT31;54434;50.096;20.082;2023-03-02T07:03:01;0.59;74.35
67641;SHT31;54434;50.096;20.082;2023-03-02T07:05:38;0.87;74.11
67641;SHT31;54434;50.096;20.082;2023-03-02T07:08:17;1.28;73.46
67641;SHT31;54434;50.096;20.082;2023-03-02T07:10:53;1.71;72.41
67641;SHT31;54434;50.096;20.082;2023-03-02T07:13:30;2.15;71.58
67641;SHT31;54434;50.096;20.082;2023-03-02T07:16:11;2.64;70.42
67641;SHT31;54434;50.096;20.082;2023-03-02T07:18:49;3.11;69.81
67641;SHT31;54434;50.096;20.082;2023-03-02T07:21:26;3.58;69.44
67641;SHT31;54434;50.096;20.082;2023-03-02T07:24:03;4.07;68.44
67641;SHT31;54434;50.096;20.082;2023-03-02T07:26:40;4.59;67.98
67641;SHT31;54434;50.096;20.082;2023-03-02T07:29:16;5.06;66.62
67641;SHT31;54434;50.096;20.082;2023-03-02T07:31:55;5.46;65.73
67641;SHT31;54434;50.096;20.082;2023-03-02T07:34:37;5.81;64.19
67641;SHT31;54434;50.096;20.082;2023-03-02T07:37:14;6.16;62.93
67641;SHT31;54434;50.096;20.082;2023-03-02T07:39:50;6.49;61.14
67641;SHT31;54434;50.096;20.082;2023-03-02T07:42:29;6.65;59.21
67641;SHT31;54434;50.096;20.082;2023-03-02T07:45:07;6.69;58.35
67641;SHT31;54434;50.096;20.082;2023-03-02T07:47:47;6.80;56.37
67641;SHT31;54434;50.096;20.082;2023-03-02T07:50:23;6.80;57.98
67641;SHT31;54434;50.096;20.082;2023-03-02T07:53:00;6.99;57.61
67641;SHT31;54434;50.096;20.082;2023-03-02T07:55:40;7.11;57.05
67641;SHT31;54434;50.096;20.082;2023-03-02T07:58:17;7.21;56.59
67641;SHT31;54434;50.096;20.082;2023-03-02T08:00:54;7.37;56.55
67641;SHT31;54434;50.096;20.082;2023-03-02T08:03:31;7.44;54.19
67641;SHT31;54434;50.096;20.082;2023-03-02T08:06:10;7.57;54.51
67641;SHT31;54434;50.096;20.082;2023-03-02T08:08:46;7.77;54.59
67641;SHT31;54434;50.096;20.082;2023-03-02T08:11:23;7.97;54.32
67641;SHT31;54434;50.096;20.082;2023-03-02T08:14:01;8.07;54.14
67641;SHT31;54434;50.096;20.082;2023-03-02T08:16:38;8.23;53.75
67641;SHT31;54434;50.096;20.082;2023-03-02T08:19:15;8.37;53.00
67641;SHT31;54434;50.096;20.082;2023-03-02T08:21:52;8.44;52.78
67641;SHT31;54434;50.096;20.082;2023-03-02T08:24:29;8.51;52.09
67641;SHT31;54434;50.096;20.082;2023-03-02T08:27:06;8.60;51.92
67641;SHT31;54434;50.096;20.082;2023-03-02T08:29:46;8.69;51.42
67641;SHT31;54434;50.096;20.082;2023-03-02T08:32:24;8.68;51.23
67641;SHT31;54434;50.096;20.082;2023-03-02T08:35:01;8.64;51.51
67641;SHT31;54434;50.096;20.082;2023-03-02T08:37:39;8.72;51.28
67641;SHT31;54434;50.096;20.082;2023-03-02T08:40:16;8.78;51.27
67641;SHT31;54434;50.096;20.082;2023-03-02T08:42:52;8.79;51.02
67641;SHT31;54434;50.096;20.082;2023-03-02T08:45:29;8.74;50.99
67641;SHT31;54434;50.096;20.082;2023-03-02T08:48:08;8.73;50.50
67641;SHT31;54434;50.096;20.082;2023-03-02T08:50:44;8.73;50.43
67641;SHT31;54434;50.096;20.082;2023-03-02T08:53:29;8.76;50.23
67641;SHT31;54434;50.096;20.082;2023-03-02T08:56:17;8.78;49.82
67641;SHT31;54434;50.096;20.082;2023-03-02T08:58:59;8.67;50.04
67641;SHT31;54434;50.096;20.082;2023-03-02T09:01:38;8.58;50.08
67641;SHT31;54434;50.096;20.082;2023-03-02T09:04:16;8.59;49.19
67641;SHT31;54434;50.096;20.082;2023-03-02T09:06:52;8.53;49.66
67641;SHT31;54434;50.096;20.082;2023-03-02T09:09:28;8.51;49.02
67641;SHT31;54434;50.096;20.082;2023-03-02T09:12:05;8.52;48.67
67641;SHT31;54434;50.096;20.082;2023-03-02T09:14:42;8.44;49.03
67641;SHT31;54434;50.096;20.082;2023-03-02T09:17:18;8.37;49.17
67641;SHT31;54434;50.096;20.082;2023-03-02T09:19:54;8.40;49.34
67641;SHT31;54434;50.096;20.082;2023-03-02T09:22:31;8.34;49.93
67641;SHT31;54434;50.096;20.082;2023-03-02T09:25:09;8.31;50.20
67641;SHT31;54434;50.096;20.082;2023-03-02T09:27:45;8.32;49.07
67641;SHT31;54434;50.096;20.082;2023-03-02T09:30:22;8.32;48.58
67641;SHT31;54434;50.096;20.082;2023-03-02T09:32:58;8.29;48.93
67641;SHT31;54434;50.096;20.082;2023-03-02T09:35:36;8.21;48.59
67641;SHT31;54434;50.096;20.082;2023-03-02T09:38:13;8.18;48.91
67641;SHT31;54434;50.096;20.082;2023-03-02T09:41:02;8.16;49.01
67641;SHT31;54434;50.096;20.082;2023-03-02T09:44:03;8.05;48.23
67641;SHT31;54434;50.096;20.082;2023-03-02T09:47:11;8.02;48.50
67641;SHT31;54434;50.096;20.082;2023-03-02T09:50:15;7.99;48.40
67641;SHT31;54434;50.096;20.082;2023-03-02T09:53:30;7.93;48.15
67641;SHT31;54434;50.096;20.082;2023-03-02T09:56:17;7.86;48.75
67641;SHT31;54434;50.096;20.082;2023-03-02T09:58:57;7.85;48.28
67641;SHT31;54434;50.096;20.082;2023-03-02T10:01:40;7.83;47.87
67641;SHT31;54434;50.096;20.082;2023-03-02T10:04:25;7.80;47.53
67641;SHT31;54434;50.096;20.082;2023-03-02T10:07:14;7.73;47.48
67641;SHT31;54434;50.096;20.082;2023-03-02T10:10:00;7.66;47.45
67641;SHT31;54434;50.096;20.082;2023-03-02T10:12:50;7.66;48.24
67641;SHT31;54434;50.096;20.082;2023-03-02T10:15:47;7.64;48.56
67641;SHT31;54434;50.096;20.082;2023-03-02T10:18:44;7.62;49.13
67641;SHT31;54434;50.096;20.082;2023-03-02T10:21:31;7.61;48.37
67641;SHT31;54434;50.096;20.082;2023-03-02T10:24:20;7.55;48.85
67641;SHT31;54434;50.096;20.082;2023-03-02T10:27:12;7.48;48.66
67641;SHT31;54434;50.096;20.082;2023-03-02T10:30:00;7.44;48.33
67641;SHT31;54434;50.096;20.082;2023-03-02T10:32:48;7.40;48.70
67641;SHT31;54434;50.096;20.082;2023-03-02T10:35:28;7.32;48.85
67641;SHT31;54434;50.096;20.082;2023-03-02T10:38:13;7.32;49.31
67641;SHT31;54434;50.096;20.082;2023-03-02T10:40:53;7.33;48.97
67641;SHT31;54434;50.096;20.082;2023-03-02T10:43:38;7.34;48.54
67641;SHT31;54434;50.096;20.082;2023-03-02T10:46:20;7.32;48.23
67641;SHT31;54434;50.096;20.082;2023-03-02T10:48:57;7.27;47.91
67641;SHT31;54434;50.096;20.082;2023-03-02T10:51:34;7.24;48.36
67641;SHT31;54434;50.096;20.082;2023-03-02T10:54:11;7.23;48.48
67641;SHT31;54434;50.096;20.082;2023-03-02T10:56:50;7.23;48.10
67641;SHT31;54434;50.096;20.082;2023-03-02T10:59:43;7.24;48.75
67641;SHT31;54434;50.096;20.082;2023-03-02T11:02:23;7.24;47.91
67641;SHT31;54434;50.096;20.082;2023-03-02T11:05:21;7.26;48.12
67641;SHT31;54434;50.096;20.082;2023-03-02T11:08:03;7.24;46.86
67641;SHT31;54434;50.096;20.082;2023-03-02T11:10:51;7.20;47.26
67641;SHT31;54434;50.096;20.082;2023-03-02T11:13:33;7.18;46.16
67641;SHT31;54434;50.096;20.082;2023-03-02T11:16:23;7.19;46.63
67641;SHT31;54434;50.096;20.082;2023-03-02T11:19:06;7.24;46.74
67641;SHT31;54434;50.096;20.082;2023-03-02T11:21:52;7.28;46.40
67641;SHT31;54434;50.096;20.082;2023-03-02T11:24:40;7.33;45.92
67641;SHT31;54434;50.096;20.082;2023-03-02T11:27:26;7.35;45.29
67641;SHT31;54434;50.096;20.082;2023-03-02T11:30:08;7.32;45.12
67641;SHT31;54434;50.096;20.082;2023-03-02T11:32:55;7.31;45.57
67641;SHT31;54434;50.096;20.082;2023-03-02T11:35:42;7.34;45.26
67641;SHT31;54434;50.096;20.082;2023-03-02T11:38:24;7.39;44.18
67641;SHT31;54434;50.096;20.082;2023-03-02T11:41:10;7.41;43.30
67641;SHT31;54434;50.096;20.082;2023-03-02T11:44:04;7.44;43.31
67641;SHT31;54434;50.096;20.082;2023-03-02T11:46:49;7.43;43.13
67641;SHT31;54434;50.096;20.082;2023-03-02T11:49:37;7.42;43.12
67641;SHT31;54434;50.096;20.082;2023-03-02T11:52:20;7.42;43.92
67641;SHT31;54434;50.096;20.082;2023-03-02T11:55:04;7.43;43.83
67641;SHT31;54434;50.096;20.082;2023-03-02T11:57:54;7.48;43.30
67641;SHT31;54434;50.096;20.082;2023-03-02T12:00:35;7.49;42.95
67641;SHT31;54434;50.096;20.082;2023-03-02T12:03:22;7.52;43.73
67641;SHT31;54434;50.096;20.082;2023-03-02T12:06:33;7.52;44.18
67641;SHT31;54434;50.096;20.082;2023-03-02T12:09:30;7.58;45.39
67641;SHT31;54434;50.096;20.082;2023-03-02T12:12:26;7.64;44.74
67641;SHT31;54434;50.096;20.082;2023-03-02T12:15:34;7.67;44.80
67641;SHT31;54434;50.096;20.082;2023-03-02T12:21:20;7.70;45.94
67641;SHT31;54434;50.096;20.082;2023-03-02T12:24:01;7.68;46.13
67641;SHT31;54434;50.096;20.082;2023-03-02T12:26:38;7.67;46.07
67641;SHT31;54434;50.096;20.082;2023-03-02T12:29:24;7.70;46.51
67641;SHT31;54434;50.096;20.082;2023-03-02T12:32:20;7.72;47.99
67641;SHT31;54434;50.096;20.082;2023-03-02T12:35:02;7.77;47.65
67641;SHT31;54434;50.096;20.082;2023-03-02T12:37:47;7.79;46.79
67641;SHT31;54434;50.096;20.082;2023-03-02T12:40:51;7.80;47.23
67641;SHT31;54434;50.096;20.082;2023-03-02T12:43:44;7.80;47.43
67641;SHT31;54434;50.096;20.082;2023-03-02T12:46:33;7.81;46.89
67641;SHT31;54434;50.096;20.082;2023-03-02T12:49:23;7.82;46.95
67641;SHT31;54434;50.096;20.082;2023-03-02T12:52:24;7.78;47.71
67641;SHT31;54434;50.096;20.082;2023-03-02T12:55:13;7.74;47.79
67641;SHT31;54434;50.096;20.082;2023-03-02T12:57:52;7.73;47.85
67641;SHT31;54434;50.096;20.082;2023-03-02T13:00:32;7.72;48.76
67641;SHT31;54434;50.096;20.082;2023-03-02T13:03:14;7.74;48.67
67641;SHT31;54434;50.096;20.082;2023-03-02T13:05:58;7.75;48.43
67641;SHT31;54434;50.096;20.082;2023-03-02T13:08:37;7.76;48.56
67641;SHT31;54434;50.096;20.082;2023-03-02T13:11:14;7.79;48.46
67641;SHT31;54434;50.096;20.082;2023-03-02T13:13:59;7.81;48.16
67641;SHT31;54434;50.096;20.082;2023-03-02T13:16:59;7.78;48.10
67641;SHT31;54434;50.096;20.082;2023-03-02T13:19:36;7.76;48.96
67641;SHT31;54434;50.096;20.082;2023-03-02T13:22:13;7.81;50.13
67641;SHT31;54434;50.096;20.082;2023-03-02T13:24:56;7.96;49.86
67641;SHT31;54434;50.096;20.082;2023-03-02T13:27:36;8.07;49.36
67641;SHT31;54434;50.096;20.082;2023-03-02T13:30:26;8.19;49.73
67641;SHT31;54434;50.096;20.082;2023-03-02T13:33:13;8.16;49.11
67641;SHT31;54434;50.096;20.082;2023-03-02T13:35:58;8.10;48.48
67641;SHT31;54434;50.096;20.082;2023-03-02T13:38:36;8.04;48.55
67641;SHT31;54434;50.096;20.082;2023-03-02T13:41:23;8.01;49.29
67641;SHT31;54434;50.096;20.082;2023-03-02T13:44:15;7.97;49.18
67641;SHT31;54434;50.096;20.082;2023-03-02T13:46:58;7.94;49.50
67641;SHT31;54434;50.096;20.082;2023-03-02T13:49:35;7.91;49.47
67641;SHT31;54434;50.096;20.082;2023-03-02T13:52:25;7.87;49.52
67641;SHT31;54434;50.096;20.082;2023-03-02T13:55:04;7.83;49.53
67641;SHT31;54434;50.096;20.082;2023-03-02T13:57:47;7.81;49.57
67641;SHT31;54434;50.096;20.082;2023-03-02T14:00:27;7.81;49.37
67641;SHT31;54434;50.096;20.082;2023-03-02T14:03:19;7.81;49.85
67641;SHT31;54434;50.096;20.082;2023-03-02T14:05:59;7.78;50.25
67641;SHT31;54434;50.096;20.082;2023-03-02T14:08:36;7.77;50.65
67641;SHT31;54434;50.096;20.082;2023-03-02T14:11:24;7.77;50.26
67641;SHT31;54434;50.096;20.082;2023-03-02T14:14:20;7.76;50.54
67641;SHT31;54434;50.096;20.082;2023-03-02T14:16:59;7.74;50.76
67641;SHT31;54434;50.096;20.082;2023-03-02T14:19:38;7.74;51.03
67641;SHT31;54434;50.096;20.082;2023-03-02T14:22:14;7.71;51.25
67641;SHT31;54434;50.096;20.082;2023-03-02T14:24:51;7.70;51.87
67641;SHT31;54434;50.096;20.082;2023-03-02T14:27:28;7.66;51.50
67641;SHT31;54434;50.096;20.082;2023-03-02T14:30:09;7.64;51.63
67641;SHT31;54434;50.096;20.082;2023-03-02T14:32:53;7.64;52.00
67641;SHT31;54434;50.096;20.082;2023-03-02T14:35:29;7.63;52.92
67641;SHT31;54434;50.096;20.082;2023-03-02T14:38:05;7.63;52.70
67641;SHT31;54434;50.096;20.082;2023-03-02T14:40:43;7.60;52.13
67641;SHT31;54434;50.096;20.082;2023-03-02T14:43:20;7.55;51.77
67641;SHT31;54434;50.096;20.082;2023-03-02T14:45:56;7.52;51.96
67641;SHT31;54434;50.096;20.082;2023-03-02T14:48:33;7.49;52.06
67641;SHT31;54434;50.096;20.082;2023-03-02T14:51:14;7.47;52.24
67641;SHT31;54434;50.096;20.082;2023-03-02T14:53:56;7.45;52.52
67641;SHT31;54434;50.096;20.082;2023-03-02T14:56:36;7.40;52.76
67641;SHT31;54434;50.096;20.082;2023-03-02T14:59:14;7.35;52.57
67641;SHT31;54434;50.096;20.082;2023-03-02T15:01:50;7.34;52.86
67641;SHT31;54434;50.096;20.082;2023-03-02T15:04:30;7.31;53.36
67641;SHT31;54434;50.096;20.082;2023-03-02T15:07:08;7.30;53.66
67641;SHT31;54434;50.096;20.082;2023-03-02T15:09:52;7.26;53.54
67641;SHT31;54434;50.096;20.082;2023-03-02T15:12:29;7.22;54.08
67641;SHT31;54434;50.096;20.082;2023-03-02T15:15:07;7.15;54.54
67641;SHT31;54434;50.096;20.082;2023-03-02T15:17:45;7.12;54.18
67641;SHT31;54434;50.096;20.082;2023-03-02T15:20:22;7.08;54.24
67641;SHT31;54434;50.096;20.082;2023-03-02T15:22:59;7.05;54.16
67641;SHT31;54434;50.096;20.082;2023-03-02T15:25:36;7.01;54.45
67641;SHT31;54434;50.096;20.082;2023-03-02T15:28:13;6.98;54.66
67641;SHT31;54434;50.096;20.082;2023-03-02T15:30:50;6.96;54.65
67641;SHT31;54434;50.096;20.082;2023-03-02T15:33:28;6.92;55.00
67641;SHT31;54434;50.096;20.082;2023-03-02T15:36:05;6.89;55.15
67641;SHT31;54434;50.096;20.082;2023-03-02T15:38:42;6.84;55.30
67641;SHT31;54434;50.096;20.082;2023-03-02T15:41:22;6.81;55.45
67641;SHT31;54434;50.096;20.082;2023-03-02T15:43:58;6.77;55.67
67641;SHT31;54434;50.096;20.082;2023-03-02T15:46:35;6.71;55.97
67641;SHT31;54434;50.096;20.082;2023-03-02T15:49:11;6.66;56.27
67641;SHT31;54434;50.096;20.082;2023-03-02T15:51:51;6.59;56.60
67641;SHT31;54434;50.096;20.082;2023-03-02T15:54:30;6.53;56.82
67641;SHT31;54434;50.096;20.082;2023-03-02T15:57:06;6.48;56.98
67641;SHT31;54434;50.096;20.082;2023-03-02T15:59:43;6.41;57.22
67641;SHT31;54434;50.096;20.082;2023-03-02T16:02:20;6.36;57.56
67641;SHT31;54434;50.096;20.082;2023-03-02T16:04:57;6.28;57.76
67641;SHT31;54434;50.096;20.082;2023-03-02T16:07:33;6.21;58.08
67641;SHT31;54434;50.096;20.082;2023-03-02T16:10:12;6.15;58.40
67641;SHT31;54434;50.096;20.082;2023-03-02T16:12:50;6.07;58.95
67641;SHT31;54434;50.096;20.082;2023-03-02T16:15:26;5.99;59.50
67641;SHT31;54434;50.096;20.082;2023-03-02T16:18:04;5.91;59.94
67641;SHT31;54434;50.096;20.082;2023-03-02T16:20:40;5.83;60.20
67641;SHT31;54434;50.096;20.082;2023-03-02T16:23:17;5.73;60.56
67641;SHT31;54434;50.096;20.082;2023-03-02T16:25:53;5.61;60.88
67641;SHT31;54434;50.096;20.082;2023-03-02T16:28:40;5.47;61.07
67641;SHT31;54434;50.096;20.082;2023-03-02T16:31:18;5.35;61.29
67641;SHT31;54434;50.096;20.082;2023-03-02T16:33:57;5.22;61.53
67641;SHT31;54434;50.096;20.082;2023-03-02T16:36:39;5.09;62.21
67641;SHT31;54434;50.096;20.082;2023-03-02T16:39:16;4.94;63.14
67641;SHT31;54434;50.096;20.082;2023-03-02T16:41:52;4.80;64.08
67641;SHT31;54434;50.096;20.082;2023-03-02T16:44:29;4.67;64.40
67641;SHT31;54434;50.096;20.082;2023-03-02T16:47:06;4.55;64.74
67641;SHT31;54434;50.096;20.082;2023-03-02T16:49:42;4.43;64.95
67641;SHT31;54434;50.096;20.082;2023-03-02T16:52:19;4.31;65.02